CheckWX is a tool to help pilots better visualize weather data.  It is not intended as a substitute for an official pre-flight weather briefing.

08:08:05 UTC

KDTW METAR
Detroit Metropolitan Wayne County Airport
Detroit, Michigan, USA
Current

15 mins ago

KDTW 260753Z 23009KT 3SM -SN BR OVC006 01/00 A2982 RMK AO2 TWR VIS 4 SLP102 P0001 T00060000 $
Observed
Jan-26 @ 07:53 UTC
Wind
  • 230° at 9 KTS
Visibility
3 SM
Flight Rules
IFR
Conditions
Light Snow, Mist
Cloud Levels
  • Overcast at 600' AGL
Temperature
C / 34°F
Dewpoint
C / 32°F
Humidity
93%
Altimeter
29.82" Hg
Pressure
1009.82 hPa
Current Rain
0.01"
Previous

1 hour ago

KDTW 260653Z 24010KT 4SM -SN BR OVC008 01/01 A2981 RMK AO2 SNB41 SLP100 P0000 T00110011 $
Observed
Jan-26 @ 06:53 UTC
Wind
  • 240° at 10 KTS
Visibility
4 SM
Flight Rules
IFR
Conditions
Light Snow, Mist
Cloud Levels
  • Overcast at 800' AGL
Temperature
C / 34°F
Dewpoint
C / 34°F
Humidity
100%
Altimeter
29.81" Hg
Pressure
1009.52 hPa
Current Rain
0.01"
Previous

2 hours ago

KDTW 260553Z 23011KT 6SM BR BKN008 OVC015 01/01 A2981 RMK AO2 SLP099 60000 T00110011 10011 20006 53001 $
Observed
Jan-26 @ 05:53 UTC
Wind
  • 230° at 11 KTS
Visibility
6 SM
Flight Rules
IFR
Conditions
Mist
Cloud Levels
  • Broken at 800' AGL
  • Overcast at 1,500' AGL
Temperature
C / 34°F
Dewpoint
C / 34°F
Humidity
100%
Altimeter
29.81" Hg
Pressure
1009.52 hPa